Accueil
METAR-TAF:

METAR-TAF

Aéroports :

Narathiwat, Thaïlande

latitude: 6-31-12N, longitude: 101-44-36E, altitude: 5 m

Observation

Le bulletin a été fait il y a 5 heures et 34 minutes, à 15:00 UTC
Vent 3 kt de direction variable
Température 27°C
Humidité 94%
Pression 1011 hPa
Visibilité 10 km ou plus
Quelques nuages à une hauteur de 1800 ft

METAR: VTSC 021500Z VRB03KT 9999 FEW018 27/26 Q1011 NOSIG

Heure: 03:34 (20:34 UTC)

Prévision

Le bulletin a été fait il y a 3 heures et 34 minutes, à 17:00 UTC
Prévision valable du 02 à 18 UTC au 03 à 18 UTC
Vent 3 kt de sud
Visibilité 10 km ou plus
Quelques nuages à une hauteur de 2000 ft
Nuages épars à une hauteur de 10000 ft
Evoluant progressivement
du 03 à 03 UTC au 03 à 05 UTC
Vent 10 kt de est/nord-est
Evoluant progressivement
du 03 à 14 UTC au 03 à 16 UTC
Vent 3 kt de sud

TAF: VTSC 021700Z 0218/0318 18003KT 9999 FEW020 SCT100 BECMG 0303/0305 07010KT BECMG 0314/0316 18003KT

Observations et prévisions météorologiques de plus de 4000 aéroports (messages METAR et TAF).

Les stations disponibles sont représentées par des disques jaunes et rouges sur la carte.

Passer la souris dessus pour voir le nom de la station.

Cliquer dessus pour voir les observations et prévisions météorologiques.

Pour changer de carte: cliquez sur les boutons verts avec une croix noire pour zoomer, sur le bouton vert avec un tiret pour effectuer un zoom arrière, ou sur les flèches vertes pour les cartes adjacentes.


METAR-TAF: